Time;durP1;ratioP1;P1;durP2;ratioP2;P2;SDS_P1;SDS_P2;PMS_P1;PMS_P2;Temp;Humidity;BMP_temperature;BMP_pressure;BME280_temperature;BME280_humidity;BME280_pressure;Samples;Min_cycle;Max_cycle;Signal;HPM_P1;HPM_P2
2021/04/25 00:00:17;;;;;;;18.42;11.68;;;;;;;8.64;68.28;100028.34;5032886;28;20024;-50
2021/04/25 00:02:42;;;;;;;;;;;;;;;8.32;69.32;100027.66;5033261;28;20029;-49
2021/04/25 00:05:09;;;;;;;19.33;11.32;;;;;;;8.02;70.11;100014.38;5032996;28;20000;-49
2021/04/25 00:07:34;;;;;;;19.67;11.13;;;;;;;8.75;68.96;100031.34;5031378;28;20018;-48
2021/04/25 00:10:00;;;;;;;18.10;10.90;;;;;;;9.21;66.50;100027.59;5031863;28;20080;-48
2021/04/25 00:12:25;;;;;;;20.02;11.05;;;;;;;8.79;67.43;100029.16;5032694;28;20033;-47
2021/04/25 00:14:50;;;;;;;19.63;11.55;;;;;;;8.32;68.98;100025.84;5030891;28;20022;-48
2021/04/25 00:17:16;;;;;;;20.05;11.00;;;;;;;8.17;69.64;100009.91;5032387;28;20029;-49
2021/04/25 00:19:41;;;;;;;24.10;12.25;;;;;;;8.12;70.16;100020.22;5032606;28;20028;-50
2021/04/25 00:22:07;;;;;;;22.00;12.25;;;;;;;8.46;70.16;100032.19;5032293;28;20022;-48
2021/04/25 00:24:32;;;;;;;21.67;12.32;;;;;;;9.17;67.22;100029.00;5032438;28;20025;-52
2021/04/25 00:26:58;;;;;;;18.60;11.48;;;;;;;8.62;68.13;100017.91;5032187;28;20404;-48
2021/04/25 00:29:23;;;;;;;22.00;11.20;;;;;;;8.31;69.44;100018.06;5032242;28;20036;-48
2021/04/25 00:31:49;;;;;;;17.95;12.05;;;;;;;8.08;70.01;100018.13;5032294;28;20040;-48
2021/04/25 00:34:14;;;;;;;18.92;11.63;;;;;;;7.97;70.54;100019.38;5030898;28;20504;-49
2021/04/25 00:36:39;;;;;;;20.20;12.00;;;;;;;7.76;71.46;100012.94;5032085;28;20045;-49
2021/04/25 00:39:05;;;;;;;20.83;11.48;;;;;;;7.84;71.36;100017.34;5031808;28;20347;-49
2021/04/25 00:41:31;;;;;;;19.33;12.40;;;;;;;7.81;71.60;100013.22;5031909;28;20022;-50
2021/04/25 00:43:56;;;;;;;23.70;12.07;;;;;;;7.88;71.81;100017.81;5032032;28;20107;-49
2021/04/25 00:46:22;;;;;;;20.40;11.43;;;;;;;7.90;71.57;100021.94;5032172;28;20033;-49
2021/04/25 00:48:49;;;;;;;20.75;12.32;;;;;;;7.84;71.32;100017.34;5032243;28;20091;-52
2021/04/25 00:51:15;;;;;;;21.30;12.05;;;;;;;8.04;71.10;100020.31;5031402;28;20103;-51
2021/04/25 00:53:43;;;;;;;22.63;12.30;;;;;;;8.01;71.19;100012.72;5031340;28;20436;-52
2021/04/25 00:56:10;;;;;;;23.38;12.25;;;;;;;8.15;70.28;100017.22;5030681;28;20029;-49
2021/04/25 00:58:35;;;;;;;20.88;12.20;;;;;;;8.11;70.21;100012.47;5031719;28;20025;-49
2021/04/25 01:01:01;;;;;;;20.10;12.52;;;;;;;8.29;70.29;100014.78;5030257;28;20041;-49
2021/04/25 01:03:26;;;;;;;27.42;14.10;;;;;;;8.19;71.15;100010.56;5031479;28;20083;-49
2021/04/25 01:05:52;;;;;;;22.98;13.35;;;;;;;8.14;70.91;100012.09;5031378;28;20022;-49
2021/04/25 01:08:17;;;;;;;21.33;12.30;;;;;;;8.05;70.97;100015.84;5030175;28;20481;-50
2021/04/25 01:10:43;;;;;;;20.85;12.73;;;;;;;7.95;71.80;100016.09;5030052;28;20057;-50
2021/04/25 01:13:08;;;;;;;26.30;13.25;;;;;;;8.18;71.15;100000.94;5031406;28;20072;-51
2021/04/25 01:15:34;;;;;;;26.92;13.55;;;;;;;7.97;71.48;100009.59;5031167;28;20091;-51
2021/04/25 01:17:59;;;;;;;25.30;13.63;;;;;;;8.01;71.76;100010.06;5031453;28;20041;-51
2021/04/25 01:20:25;;;;;;;26.55;14.77;;;;;;;7.80;72.21;100008.09;5031391;28;20025;-48
2021/04/25 01:22:50;;;;;;;24.92;14.40;;;;;;;7.86;71.81;100009.22;5031200;28;20029;-48
2021/04/25 01:25:21;;;;;;;23.33;14.45;;;;;;;7.94;71.76;100002.03;5031086;28;20029;-52
2021/04/25 01:27:47;;;;;;;25.98;14.70;;;;;;;7.90;71.99;100005.19;5030613;28;20018;-51
2021/04/25 01:30:14;;;;;;;26.55;14.70;;;;;;;7.96;71.82;100013.28;5029312;28;20104;-51
2021/04/25 01:32:42;;;;;;;23.40;14.10;;;;;;;7.66;71.97;99966.53;5031541;28;20029;-50
2021/04/25 01:35:09;;;;;;;22.30;13.73;;;;;;;7.78;72.37;100007.47;5031228;28;20021;-52
2021/04/25 01:37:34;;;;;;;25.42;14.57;;;;;;;7.91;71.85;100007.69;5030939;28;20443;-50
2021/04/25 01:40:00;;;;;;;21.63;13.70;;;;;;;7.70;72.91;100004.88;5031000;28;20025;-48
2021/04/25 01:42:25;;;;;;;23.27;13.23;;;;;;;7.68;73.18;100006.91;5031159;28;20025;-49
2021/04/25 01:44:51;;;;;;;24.60;13.90;;;;;;;7.88;72.07;99999.25;5030786;28;20469;-51
2021/04/25 01:47:16;;;;;;;26.73;13.35;;;;;;;7.95;72.11;100000.19;5030808;28;20112;-50
2021/04/25 01:49:41;;;;;;;27.30;14.25;;;;;;;7.88;72.09;100000.09;5030821;28;20025;-53
2021/04/25 01:52:07;;;;;;;22.42;12.90;;;;;;;7.92;72.34;99997.88;5030920;28;20116;-52
2021/04/25 01:54:32;;;;;;;22.77;13.35;;;;;;;7.74;72.16;99996.41;5030462;28;20021;-51
2021/04/25 01:56:58;;;;;;;23.75;14.10;;;;;;;7.60;72.83;100002.50;5029850;28;20090;-51
2021/04/25 01:59:23;;;;;;;25.58;13.77;;;;;;;7.84;72.16;100001.44;5030266;28;20087;-50
2021/04/25 02:01:49;;;;;;;26.77;13.95;;;;;;;7.88;71.94;99991.31;5030642;28;20033;-50
2021/04/25 02:04:14;;;;;;;22.58;13.38;;;;;;;7.71;72.73;99993.28;5030116;28;20032;-50
2021/04/25 02:06:42;;;;;;;21.20;13.25;;;;;;;7.53;73.17;99991.75;5029035;28;20033;-52
2021/04/25 02:09:08;;;;;;;27.45;14.38;;;;;;;7.38;73.46;99999.66;5030260;28;20041;-50
2021/04/25 02:11:33;;;;;;;23.83;13.82;;;;;;;7.39;73.98;100001.31;5030385;28;20088;-52
2021/04/25 02:13:59;;;;;;;25.33;14.65;;;;;;;7.42;73.55;100000.13;5030617;28;20104;-52
2021/04/25 02:16:24;;;;;;;26.20;14.65;;;;;;;7.54;73.28;99997.88;5030486;28;20025;-51
2021/04/25 02:18:50;;;;;;;25.70;15.00;;;;;;;7.62;73.28;99998.66;5030372;28;20033;-49
2021/04/25 02:21:15;;;;;;;27.13;15.18;;;;;;;7.55;73.00;100004.84;5030452;28;20030;-50
2021/04/25 02:23:40;;;;;;;27.40;14.40;;;;;;;7.50;73.68;99997.44;5030610;28;20626;-52
2021/04/25 02:26:06;;;;;;;23.10;13.90;;;;;;;7.43;73.76;99994.66;5030740;28;20025;-52
2021/04/25 02:28:31;;;;;;;31.70;14.77;;;;;;;7.30;73.87;99990.97;5030559;28;20095;-51
2021/04/25 02:30:57;;;;;;;26.05;15.05;;;;;;;7.28;74.38;100001.72;5030368;28;20033;-47
2021/04/25 02:33:22;;;;;;;26.45;14.70;;;;;;;7.37;74.07;100000.66;5030206;28;20037;-50
2021/04/25 02:35:48;;;;;;;21.27;13.25;;;;;;;7.22;74.33;100002.41;5029983;28;20045;-49
2021/04/25 02:38:13;;;;;;;22.40;13.80;;;;;;;7.20;74.11;99999.13;5032452;28;20036;-51
2021/04/25 02:40:39;;;;;;;20.52;12.25;;;;;;;7.28;74.56;99999.06;5034313;28;20076;-49
2021/04/25 02:43:04;;;;;;;23.42;12.75;;;;;;;7.35;73.77;99994.72;5034482;28;20034;-50
2021/04/25 02:45:30;;;;;;;25.05;14.18;;;;;;;7.54;73.24;99989.94;5034401;28;20045;-52
2021/04/25 02:48:00;;;;;;;26.13;14.65;;;;;;;7.46;73.80;99992.66;5034262;28;20559;-51
2021/04/25 02:50:26;;;;;;;;;;;;;;;7.20;74.01;99996.47;5034919;28;20057;-53
2021/04/25 02:52:52;;;;;;;25.45;14.13;;;;;;;7.12;74.30;100002.66;5034094;28;19909;-49
2021/04/25 02:55:17;;;;;;;26.70;14.85;;;;;;;7.15;74.54;100001.47;5034043;28;20029;-49
2021/04/25 02:57:43;;;;;;;23.20;14.10;;;;;;;7.44;73.57;100012.22;5033888;28;20025;-49
2021/04/25 03:00:14;;;;;;;25.20;14.93;;;;;;;7.32;73.76;100008.31;5033972;28;20017;-49
2021/04/25 03:02:39;;;;;;;28.98;14.55;;;;;;;7.09;74.65;100010.09;5033828;28;20021;-53
2021/04/25 03:05:05;;;;;;;25.88;13.98;;;;;;;6.91;74.73;99974.16;5033707;28;20469;-51
2021/04/25 03:07:31;;;;;;;27.27;14.77;;;;;;;6.97;75.54;100010.50;5033547;28;20021;-52
2021/04/25 03:09:56;;;;;;;23.77;13.80;;;;;;;6.98;75.03;100008.66;5031997;28;20117;-50
2021/04/25 03:12:22;;;;;;;23.70;13.40;;;;;;;7.04;74.40;100005.31;5033775;28;20087;-53
2021/04/25 03:14:47;;;;;;;27.05;13.93;;;;;;;6.99;75.35;100005.84;5033557;28;20080;-51
2021/04/25 03:17:13;;;;;;;23.63;13.10;;;;;;;6.92;75.41;100009.38;5033536;28;20022;-51
2021/04/25 03:19:38;;;;;;;25.80;14.50;;;;;;;6.89;75.59;100009.69;5033583;28;20021;-52
2021/04/25 03:22:04;;;;;;;26.17;14.80;;;;;;;6.98;75.36;100004.19;5033622;28;20032;-50
2021/04/25 03:24:29;;;;;;;25.10;14.18;;;;;;;6.70;76.11;100003.84;5033486;28;20377;-51
2021/04/25 03:26:54;;;;;;;27.10;13.57;;;;;;;6.78;76.00;100013.56;5033142;28;20030;-51
2021/04/25 03:29:20;;;;;;;24.08;14.20;;;;;;;7.20;74.92;100017.66;5032942;28;20025;-51
2021/04/25 03:31:45;;;;;;;28.55;14.25;;;;;;;7.05;74.68;100015.75;5033226;28;20029;-51
2021/04/25 03:34:11;;;;;;;31.10;15.48;;;;;;;7.07;74.81;100020.88;5033084;28;20029;-50
2021/04/25 03:36:36;;;;;;;26.75;14.73;;;;;;;6.92;75.25;100015.47;5033009;28;20029;-52
2021/04/25 03:39:04;;;;;;;29.20;14.57;;;;;;;7.01;74.94;100019.75;5033108;28;20390;-52
2021/04/25 03:41:29;;;;;;;33.30;16.52;;;;;;;6.99;74.95;100015.63;5033389;28;20037;-51
2021/04/25 03:43:54;;;;;;;28.17;15.27;;;;;;;6.92;74.82;100019.97;5033366;28;20018;-48
2021/04/25 03:46:20;;;;;;;30.75;15.77;;;;;;;6.90;74.77;100014.81;5032782;28;20366;-51
2021/04/25 03:48:45;;;;;;;32.17;16.00;;;;;;;7.02;74.54;100024.00;5032525;28;20025;-51
2021/04/25 03:51:11;;;;;;;31.65;16.85;;;;;;;6.96;74.44;100018.59;5032562;28;20178;-51
2021/04/25 03:53:37;;;;;;;29.92;16.15;;;;;;;7.06;73.81;100027.13;5032805;28;20021;-49
2021/04/25 03:56:02;;;;;;;28.20;16.95;;;;;;;7.16;73.58;100030.41;5032864;28;20032;-52
2021/04/25 03:58:28;;;;;;;79.55;36.88;;;;;;;7.12;74.77;100034.41;5032834;28;20030;-51
2021/04/25 04:00:53;;;;;;;40.65;19.83;;;;;;;7.05;74.81;100034.25;5032918;28;20542;-51
2021/04/25 04:03:19;;;;;;;28.67;16.40;;;;;;;7.14;74.77;100036.84;5032832;28;20022;-54
2021/04/25 04:05:44;;;;;;;33.33;17.67;;;;;;;7.28;74.54;100032.66;5032724;28;20026;-51
2021/04/25 04:08:10;;;;;;;30.85;16.23;;;;;;;7.50;73.94;100031.88;5032608;28;20045;-51
2021/04/25 04:10:35;;;;;;;29.77;15.02;;;;;;;7.26;74.96;100035.47;5032510;28;20087;-48
2021/04/25 04:13:01;;;;;;;26.23;15.15;;;;;;;7.45;74.03;100042.16;5031139;28;20045;-48
2021/04/25 04:15:26;;;;;;;33.70;16.13;;;;;;;7.35;74.61;100045.03;5032479;28;20087;-51
2021/04/25 04:17:51;;;;;;;28.08;15.25;;;;;;;7.26;74.78;100042.59;5032181;28;20032;-51
2021/04/25 04:20:17;;;;;;;27.67;16.10;;;;;;;7.49;75.03;100051.38;5032397;28;20484;-51
2021/04/25 04:22:42;;;;;;;27.40;15.07;;;;;;;7.31;75.14;100049.03;5032351;28;20459;-50
2021/04/25 04:25:08;;;;;;;28.73;16.05;;;;;;;7.22;76.70;100050.88;5032311;28;20446;-52
2021/04/25 04:27:34;;;;;;;34.85;18.38;;;;;;;7.43;75.86;100052.91;5031728;28;20525;-49
2021/04/25 04:29:59;;;;;;;34.88;16.83;;;;;;;7.55;76.36;100061.28;5030641;28;20027;-50
2021/04/25 04:32:25;;;;;;;33.25;17.85;;;;;;;7.69;76.67;100056.22;5032146;28;20036;-52
2021/04/25 04:34:50;;;;;;;34.25;17.58;;;;;;;7.49;77.45;100061.16;5031953;28;20025;-51
2021/04/25 04:37:16;;;;;;;34.78;17.58;;;;;;;7.78;76.65;100066.56;5032019;28;20024;-52
2021/04/25 04:39:41;;;;;;;33.20;17.17;;;;;;;7.55;77.74;100024.19;5032071;28;20024;-51
2021/04/25 04:42:07;;;;;;;38.65;18.38;;;;;;;8.16;77.00;100058.63;5032053;28;20385;-49
2021/04/25 04:44:32;;;;;;;38.00;16.75;;;;;;;8.18;76.61;100051.31;5032070;28;20053;-49
2021/04/25 04:46:58;;;;;;;36.25;17.35;;;;;;;8.11;77.36;100049.56;5031857;28;20446;-51
2021/04/25 04:49:23;;;;;;;36.78;17.02;;;;;;;8.23;77.49;100054.25;5032103;28;20024;-50
2021/04/25 04:51:49;;;;;;;38.25;17.60;;;;;;;8.15;77.95;100050.88;5031548;28;20018;-51
2021/04/25 04:54:14;;;;;;;35.85;16.73;;;;;;;8.14;77.86;100046.56;5031805;28;20071;-51
2021/04/25 04:56:40;;;;;;;46.83;20.17;;;;;;;8.50;77.25;100044.06;5031854;28;20060;-53
2021/04/25 04:59:05;;;;;;;42.13;18.73;;;;;;;8.37;77.94;100049.97;5031966;28;20025;-49
2021/04/25 05:01:31;;;;;;;45.25;19.73;;;;;;;8.08;78.90;100064.00;5029282;28;20334;-51
2021/04/25 05:03:56;;;;;;;52.13;20.27;;;;;;;7.89;80.33;100053.91;5031008;28;20029;-49
2021/04/25 05:06:21;;;;;;;55.47;21.88;;;;;;;7.95;80.27;100056.66;5031405;28;20028;-50
2021/04/25 05:08:47;;;;;;;58.00;22.98;;;;;;;8.45;78.18;100058.88;5031613;28;20025;-51
2021/04/25 05:11:13;;;;;;;47.33;21.10;;;;;;;8.20;78.23;100065.22;5031270;28;20513;-52
2021/04/25 05:13:39;;;;;;;46.33;21.42;;;;;;;8.21;78.75;100072.19;5031311;28;20460;-52
2021/04/25 05:16:04;;;;;;;54.42;23.55;;;;;;;8.43;78.16;100077.63;5031462;28;20056;-49
2021/04/25 05:18:30;;;;;;;56.35;24.13;;;;;;;8.31;78.62;100071.09;5031145;28;20026;-51
2021/04/25 05:20:55;;;;;;;48.55;22.70;;;;;;;8.23;78.26;100077.31;5031165;28;20029;-50
2021/04/25 05:23:21;;;;;;;52.85;24.35;;;;;;;8.05;79.54;100068.84;5031168;28;20025;-50
2021/04/25 05:25:46;;;;;;;52.75;24.60;;;;;;;8.14;78.91;100067.78;5031273;28;20025;-50
2021/04/25 05:28:12;;;;;;;50.08;24.20;;;;;;;8.07;79.62;100070.31;5031042;28;20025;-51
2021/04/25 05:30:37;;;;;;;54.80;23.98;;;;;;;7.95;79.66;100069.09;5031395;28;20168;-52
2021/04/25 05:33:03;;;;;;;52.33;23.75;;;;;;;8.15;79.26;100072.91;5031158;28;20033;-53
2021/04/25 05:35:28;;;;;;;52.38;24.63;;;;;;;8.11;79.45;100082.22;5031223;28;20029;-51
2021/04/25 05:37:53;;;;;;;54.55;24.83;;;;;;;8.30;79.44;100067.63;5030950;28;20021;-49
2021/04/25 05:40:19;;;;;;;57.15;26.58;;;;;;;8.36;78.55;100079.34;5030617;28;20030;-50
2021/04/25 05:42:44;;;;;;;60.47;28.95;;;;;;;8.82;77.46;100073.09;5030858;28;20037;-52
2021/04/25 05:45:19;;;;;;;63.70;29.23;;;;;;;8.79;77.50;100072.44;5030973;28;20022;-52
2021/04/25 05:47:46;;;;;;;64.40;28.73;;;;;;;8.81;77.09;100074.91;5030735;28;20032;-50
2021/04/25 05:50:11;;;;;;;53.90;25.52;;;;;;;8.56;77.40;100080.47;5030896;28;20118;-48
2021/04/25 05:52:37;;;;;;;55.25;26.40;;;;;;;8.47;78.57;100068.31;5030653;28;20470;-50
2021/04/25 05:55:03;;;;;;;53.80;26.48;;;;;;;8.68;77.85;100080.03;5030633;28;20033;-49
2021/04/25 05:57:28;;;;;;;50.53;24.70;;;;;;;8.95;76.61;100086.53;5030087;28;20032;-50
2021/04/25 05:59:55;;;;;;;48.33;23.58;;;;;;;8.72;76.66;100083.97;5030693;28;20026;-50
2021/04/25 06:02:20;;;;;;;48.65;23.80;;;;;;;8.57;77.77;100082.13;5028502;28;20042;-51
2021/04/25 06:04:46;;;;;;;50.83;24.10;;;;;;;8.90;76.93;100080.94;5026871;28;20025;-52
2021/04/25 06:07:11;;;;;;;42.83;22.30;;;;;;;8.80;77.05;100081.22;5030313;28;20036;-51
2021/04/25 06:09:37;;;;;;;53.80;25.45;;;;;;;8.97;76.88;100087.19;5024370;28;20091;-52
2021/04/25 06:12:02;;;;;;;47.08;23.27;;;;;;;8.99;76.56;100091.28;5030266;28;20534;-48
2021/04/25 06:14:28;;;;;;;44.28;22.02;;;;;;;8.87;77.07;100087.47;5030529;28;20104;-49
2021/04/25 06:16:53;;;;;;;45.85;24.27;;;;;;;8.95;76.99;100095.31;5030431;28;20072;-49
2021/04/25 06:19:19;;;;;;;40.17;20.95;;;;;;;8.86;76.69;100075.19;5030236;28;20021;-49
2021/04/25 06:21:44;;;;;;;35.95;19.40;;;;;;;9.08;75.47;100086.72;5028798;28;20030;-51
2021/04/25 06:24:10;;;;;;;39.78;20.55;;;;;;;9.39;74.73;100089.09;5030428;28;20025;-51
2021/04/25 06:26:36;;;;;;;36.15;19.58;;;;;;;9.68;72.89;100095.34;5030340;28;20029;-51
2021/04/25 06:29:01;;;;;;;39.55;21.83;;;;;;;9.85;72.46;100087.94;5030236;28;20497;-48
2021/04/25 06:31:27;;;;;;;43.28;22.92;;;;;;;9.70;72.99;100081.88;5030496;28;20029;-52
2021/04/25 06:33:52;;;;;;;42.42;22.00;;;;;;;9.47;73.99;100095.31;5030021;28;20404;-51
2021/04/25 06:36:18;;;;;;;42.85;21.20;;;;;;;9.55;73.45;100079.25;5029826;28;20107;-49
2021/04/25 06:38:43;;;;;;;46.80;22.50;;;;;;;9.71;73.26;100084.34;5030289;28;20025;-52
2021/04/25 06:41:08;;;;;;;42.17;21.92;;;;;;;9.79;73.78;100086.06;5030197;28;20029;-51
2021/04/25 06:43:34;;;;;;;45.83;21.05;;;;;;;9.95;72.55;100077.78;5030067;28;20111;-50
2021/04/25 06:46:00;;;;;;;36.10;20.27;;;;;;;10.14;71.97;100088.81;5030276;28;20088;-51
2021/04/25 06:48:26;;;;;;;35.00;19.30;;;;;;;9.93;71.90;100093.13;5030208;28;20025;-52
2021/04/25 06:50:51;;;;;;;37.15;20.75;;;;;;;9.66;73.31;100089.38;5030107;28;20119;-54
2021/04/25 06:53:17;;;;;;;43.78;22.38;;;;;;;9.84;73.17;100093.44;5030403;28;20030;-51
2021/04/25 06:55:42;;;;;;;41.75;22.13;;;;;;;9.92;73.00;100091.50;5030338;28;20025;-51
2021/04/25 06:58:08;;;;;;;39.33;21.70;;;;;;;9.64;73.64;100093.25;5030065;28;20433;-49
2021/04/25 07:00:33;;;;;;;49.28;23.85;;;;;;;9.85;73.77;100093.25;5030147;28;20025;-51
2021/04/25 07:02:59;;;;;;;33.65;18.27;;;;;;;9.93;72.38;100095.78;5029923;28;20033;-49
2021/04/25 07:05:25;;;;;;;34.40;18.48;;;;;;;10.12;73.20;100096.16;5030151;28;20110;-51
2021/04/25 07:07:50;;;;;;;36.85;19.80;;;;;;;10.51;74.21;100094.84;5029365;28;20028;-50
2021/04/25 07:10:16;;;;;;;64.13;28.38;;;;;;;10.70;71.35;100088.00;5029283;28;20198;-51
2021/04/25 07:12:42;;;;;;;34.95;18.92;;;;;;;10.52;70.78;100093.81;5029582;28;20049;-50
2021/04/25 07:15:08;;;;;;;37.88;20.90;;;;;;;11.04;69.78;100094.31;5028231;28;20132;-50
2021/04/25 07:17:33;;;;;;;35.90;19.77;;;;;;;11.92;68.26;100097.91;5029206;28;20502;-52
2021/04/25 07:19:59;;;;;;;33.28;19.00;;;;;;;12.35;66.23;100088.66;5029217;28;20444;-51
2021/04/25 07:22:24;;;;;;;38.40;20.67;;;;;;;13.35;65.40;100092.97;5029433;28;20021;-48
2021/04/25 07:24:50;;;;;;;34.50;20.30;;;;;;;13.79;63.88;100088.59;5030854;28;20481;-52
2021/04/25 07:27:17;;;;;;;35.42;20.27;;;;;;;14.47;60.96;100083.28;5033585;28;20018;-51
2021/04/25 07:29:43;;;;;;;30.08;18.95;;;;;;;14.71;56.92;100088.03;5033218;28;20017;-48
2021/04/25 07:32:08;;;;;;;31.27;18.90;;;;;;;14.64;58.46;100093.44;5033408;28;20493;-49
2021/04/25 07:34:34;;;;;;;31.95;19.45;;;;;;;15.02;56.46;100089.75;5033164;28;20477;-49
2021/04/25 07:36:59;;;;;;;31.05;19.48;;;;;;;15.24;54.84;100082.88;5033062;28;20026;-50
2021/04/25 07:39:25;;;;;;;30.50;18.15;;;;;;;15.04;54.89;100083.13;5032844;28;20104;-51
2021/04/25 07:41:50;;;;;;;26.85;17.30;;;;;;;14.72;55.56;100093.19;5033176;28;20029;-49
2021/04/25 07:44:16;;;;;;;31.27;18.13;;;;;;;14.61;58.24;100081.31;5033360;28;20026;-50
2021/04/25 07:46:42;;;;;;;26.77;17.02;;;;;;;14.16;57.03;100092.19;5033310;28;20100;-49
2021/04/25 07:49:08;;;;;;;28.25;16.75;;;;;;;14.32;57.25;100088.16;5031533;28;20044;-51
2021/04/25 07:51:33;;;;;;;25.58;16.92;;;;;;;14.52;55.99;100076.44;5032576;28;20401;-49
2021/04/25 07:53:59;;;;;;;24.55;16.70;;;;;;;14.45;56.47;100077.34;5032749;28;20474;-52
2021/04/25 07:56:26;;;;;;;28.98;17.92;;;;;;;14.77;55.89;100074.56;5026125;28;20132;-50
2021/04/25 07:58:51;;;;;;;26.85;16.88;;;;;;;14.82;55.19;100069.34;5020899;28;20037;-49
2021/04/25 08:01:17;;;;;;;29.02;18.00;;;;;;;14.69;56.09;100069.50;5013045;28;20021;-52
2021/04/25 08:03:42;;;;;;;27.92;16.15;;;;;;;14.35;56.88;100062.81;5013272;28;20370;-52
2021/04/25 08:06:08;;;;;;;25.75;16.67;;;;;;;14.66;56.11;100062.75;5032793;28;20024;-51
2021/04/25 08:08:33;;;;;;;30.92;18.67;;;;;;;15.23;55.26;100058.97;5033121;28;20025;-49
2021/04/25 08:10:59;;;;;;;30.60;18.63;;;;;;;16.37;52.16;100058.09;5032350;28;20425;-48
2021/04/25 08:13:24;;;;;;;27.33;17.50;;;;;;;16.74;51.32;100058.63;5032521;28;20052;-49
2021/04/25 08:15:50;;;;;;;27.45;16.52;;;;;;;16.85;50.57;100053.50;5032581;28;20401;-50
2021/04/25 08:18:15;;;;;;;25.70;17.05;;;;;;;16.49;51.74;100056.22;5032898;28;20091;-50
2021/04/25 08:20:41;;;;;;;24.95;16.25;;;;;;;16.95;50.47;100048.34;5032308;28;20026;-51
2021/04/25 08:23:06;;;;;;;28.63;16.17;;;;;;;17.85;48.30;100046.78;5030341;28;20132;-49
2021/04/25 08:25:32;;;;;;;26.30;15.57;;;;;;;17.98;47.69;100038.38;5029901;28;20454;-53
2021/04/25 08:27:57;;;;;;;26.67;15.30;;;;;;;17.77;47.50;100033.72;5031353;28;20089;-49
2021/04/25 08:30:23;;;;;;;24.95;16.48;;;;;;;18.43;47.51;100025.88;5031459;28;20473;-49
2021/04/25 08:32:48;;;;;;;22.27;14.80;;;;;;;19.07;44.27;100019.13;5031867;28;20110;-51
2021/04/25 08:35:14;;;;;;;20.38;13.43;;;;;;;18.61;46.51;100023.94;5031776;28;20426;-49
2021/04/25 08:37:39;;;;;;;19.85;13.95;;;;;;;19.13;45.52;100005.44;5031921;28;20032;-49
2021/04/25 08:40:07;;;;;;;19.17;13.75;;;;;;;18.82;45.85;100001.56;5030533;28;20028;-52
2021/04/25 08:42:32;;;;;;;21.65;13.68;;;;;;;18.99;45.74;99996.13;5031968;28;20017;-49
2021/04/25 08:44:58;;;;;;;19.27;13.48;;;;;;;18.93;45.32;99989.84;5031872;28;20021;-52
2021/04/25 08:47:24;;;;;;;18.00;11.50;;;;;;;18.46;43.79;99994.91;5032058;28;20025;-51
2021/04/25 08:49:50;;;;;;;19.83;11.32;;;;;;;18.48;44.55;99987.38;5030527;28;20429;-52
2021/04/25 08:52:15;;;;;;;16.95;11.48;;;;;;;18.41;45.05;99976.81;5031602;28;20104;-53
2021/04/25 08:54:41;;;;;;;16.83;11.38;;;;;;;18.05;44.68;99980.84;5030192;28;20025;-48
2021/04/25 08:57:07;;;;;;;16.85;10.50;;;;;;;18.52;42.97;99985.81;5031636;28;20466;-49
2021/04/25 08:59:33;;;;;;;16.45;11.48;;;;;;;18.66;43.61;99968.22;5031683;28;20056;-50
2021/04/25 09:01:58;;;;;;;17.23;11.32;;;;;;;18.33;44.92;99969.97;5031415;28;20021;-50
2021/04/25 09:04:24;;;;;;;20.05;11.25;;;;;;;17.77;45.83;99961.84;5031714;28;20026;-50
2021/04/25 09:07:09;;;;;;;14.75;9.93;;;;;;;18.50;44.03;99974.47;5031353;28;20018;-50
2021/04/25 09:09:49;;;;;;;18.25;9.93;;;;;;;18.96;42.54;99953.47;5031051;28;20021;-51
2021/04/25 09:12:34;;;;;;;16.38;11.00;;;;;;;18.75;43.54;99961.31;5031323;28;20426;-50
2021/04/25 09:15:01;;;;;;;17.15;10.77;;;;;;;18.51;43.48;99952.66;5030975;28;20036;-49
2021/04/25 09:17:26;;;;;;;16.20;10.38;;;;;;;18.08;43.95;99950.75;5029664;28;20022;-49
2021/04/25 09:19:57;;;;;;;15.55;9.70;;;;;;;18.49;43.21;99954.00;5030166;28;20114;-47
2021/04/25 09:22:25;;;;;;;14.45;9.15;;;;;;;18.25;42.80;99956.91;5029770;28;20025;-51
2021/04/25 09:24:52;;;;;;;14.25;8.82;;;;;;;17.55;44.31;99952.88;5029440;28;20029;-51
2021/04/25 09:27:27;;;;;;;16.02;9.50;;;;;;;17.78;43.90;99939.28;5013765;28;20492;-50
2021/04/25 09:29:54;;;;;;;15.02;9.13;;;;;;;18.39;43.23;99937.69;5029724;28;20326;-50
2021/04/25 09:32:29;;;;;;;15.23;9.27;;;;;;;18.07;43.65;99938.38;5031164;28;20517;-50
2021/04/25 09:35:08;;;;;;;14.77;8.68;;;;;;;18.63;41.59;99932.88;5031227;28;20021;-50
2021/04/25 09:37:34;;;;;;;15.65;9.50;;;;;;;18.30;42.22;99942.72;5030647;28;20021;-51
2021/04/25 09:40:06;;;;;;;16.13;9.20;;;;;;;18.55;42.42;99934.13;5030763;28;20029;-49
2021/04/25 09:42:31;;;;;;;14.25;9.82;;;;;;;18.46;42.31;99903.28;5030971;28;20024;-49
2021/04/25 09:44:57;;;;;;;11.55;7.93;;;;;;;18.60;40.03;99931.50;5030989;28;20547;-51
2021/04/25 09:47:32;;;;;;;15.45;9.13;;;;;;;18.26;40.77;99937.00;5030144;28;20025;-49
2021/04/25 09:50:00;;;;;;;13.15;8.25;;;;;;;18.70;39.42;99923.50;5030379;28;20434;-39
2021/04/25 09:52:38;;;;;;;13.90;7.93;;;;;;;19.79;38.37;99919.94;5031095;28;20027;-39
2021/04/25 09:55:21;;;;;;;14.13;8.43;;;;;;;20.22;37.80;99908.03;5030819;28;20025;-39
2021/04/25 09:57:47;;;;;;;13.50;8.18;;;;;;;20.05;37.18;99920.91;5030659;28;20081;-39
2021/04/25 10:00:13;;;;;;;12.27;7.95;;;;;;;19.32;38.38;99918.75;5030978;28;20501;-39
2021/04/25 10:03:10;;;;;;;12.85;8.18;;;;;;;20.39;37.92;99902.44;5030767;28;20464;-40
2021/04/25 10:05:37;;;;;;;18.48;8.75;;;;;;;20.97;36.74;99901.53;5030453;28;20033;-49
2021/04/25 10:08:02;;;;;;;12.18;7.40;;;;;;;19.84;37.85;99899.19;5030833;28;20021;-48
2021/04/25 10:10:28;;;;;;;10.40;6.90;;;;;;;19.21;36.82;99906.22;5030124;28;20448;-48
2021/04/25 10:12:55;;;;;;;9.60;6.80;;;;;;;19.78;37.16;99894.84;5030053;28;20112;-50
2021/04/25 10:15:21;;;;;;;12.35;7.50;;;;;;;21.11;34.72;99893.69;5030074;28;20097;-48
2021/04/25 10:17:48;;;;;;;11.70;7.20;;;;;;;19.61;38.37;99894.13;5028868;28;20029;-49
2021/04/25 10:20:15;;;;;;;11.35;7.15;;;;;;;19.94;38.59;99886.81;5010481;28;20042;-50
2021/04/25 10:22:42;;;;;;;13.32;7.35;;;;;;;20.63;37.47;99885.78;5015116;28;20037;-50
2021/04/25 10:25:09;;;;;;;10.65;7.10;;;;;;;21.06;36.21;99873.66;5020556;28;20164;-49
2021/04/25 10:27:35;;;;;;;12.25;6.65;;;;;;;20.74;35.99;99867.69;5027797;28;20032;-48
2021/04/25 10:30:02;;;;;;;10.10;6.75;;;;;;;20.18;37.14;99881.78;5011720;28;20585;-50
2021/04/25 10:32:28;;;;;;;10.50;6.28;;;;;;;19.52;37.33;99864.94;5029732;28;20021;-48
2021/04/25 10:35:13;;;;;;;8.60;5.60;;;;;;;19.80;36.62;99862.16;5026162;28;20026;-49
2021/04/25 10:37:39;;;;;;;8.32;5.32;;;;;;;20.15;35.73;99853.44;5022808;28;20054;-48
2021/04/25 10:40:29;;;;;;;8.32;5.30;;;;;;;19.56;36.58;99857.13;5010797;28;20057;-51
2021/04/25 10:43:02;;;;;;;7.10;5.30;;;;;;;18.99;37.73;99855.09;5020512;28;20034;-49
2021/04/25 10:45:34;;;;;;;6.60;4.55;;;;;;;19.42;36.29;99837.88;5019589;28;20033;-48
2021/04/25 10:48:17;;;;;;;6.97;4.50;;;;;;;19.51;36.04;99836.34;5025832;28;20022;-50
2021/04/25 10:50:44;;;;;;;5.68;4.00;;;;;;;19.31;35.35;99850.47;5030338;28;20029;-51
2021/04/25 10:53:19;;;;;;;6.72;3.50;;;;;;;19.93;34.84;99831.97;5029013;28;20084;-51
2021/04/25 10:56:13;;;;;;;6.05;3.55;;;;;;;20.59;33.00;99834.09;5029436;28;20072;-49
2021/04/25 10:58:42;;;;;;;7.07;3.53;;;;;;;20.41;32.00;99840.81;5029021;28;20033;-49
2021/04/25 11:01:08;;;;;;;5.53;3.53;;;;;;;19.93;32.45;99840.06;5031074;28;20116;-51
2021/04/25 11:03:33;;;;;;;5.85;3.25;;;;;;;20.33;31.34;99825.09;5032805;28;20036;-49
2021/04/25 11:05:59;;;;;;;5.40;3.50;;;;;;;19.91;30.95;99829.56;5032389;28;20104;-50
2021/04/25 11:08:30;;;;;;;5.05;3.10;;;;;;;19.70;31.31;99815.13;5032243;28;20056;-49
2021/04/25 11:11:10;;;;;;;6.22;3.10;;;;;;;19.94;31.02;99812.00;5032840;28;20120;-48
2021/04/25 11:16:16;;;;;;;4.75;2.80;;;;;;;19.97;30.27;99802.56;5033587;28;20064;-48
2021/04/25 11:19:06;;;;;;;5.85;2.97;;;;;;;21.09;29.23;99810.09;5033679;28;20132;-49